Tufão IN-FA 2021: trajetória, intensidade e histórico
31/07/2021, 06:00:00
15/07/2021, 18:00:00 – 31/07/2021, 06:00:00
Trajetória histórica
Acompanhe a evolução e o deslocamento de Tufão IN-FA em 2021, com a trajetória completa registrada, ventos máximos sustentados de 95 nós, pressão central mínima e cronologia detalhada.
| Data | Hora | Tipo | Ventokm/h | PressãohPa |
|---|---|---|---|---|
| 31/07 | 06:00 | EXCiclone extratropical | -- | 994 |
| 31/07 | 03:00 | EXCiclone extratropical | -- | 994 |
| 31/07 | 00:00 | EXCiclone extratropical | 45 | 994 |
| 30/07 | 21:00 | EXCiclone extratropical | 45 | 994 |
| 30/07 | 18:00 | EXCiclone extratropical | 45 | 994 |
| 30/07 | 15:00 | EXCiclone extratropical | 50 | 993 |
| 30/07 | 12:00 | EXCiclone extratropical | 55 | 994 |
| 30/07 | 09:00 | TDDepressão tropical | 55 | 992 |
| 30/07 | 06:00 | EXCiclone extratropical | 55 | 992 |
| 30/07 | 03:00 | DBPerturbação tropical | 55 | 992 |
| 30/07 | 00:00 | EXCiclone extratropical | 30 | 992 |
| 29/07 | 21:00 | DBPerturbação tropical | 30 | 992 |
| 29/07 | 18:00 | EXCiclone extratropical | 30 | 992 |
| 29/07 | 15:00 | DBPerturbação tropical | 30 | 992 |
| 29/07 | 12:00 | TDDepressão tropical | 30 | 992 |
| 29/07 | 09:00 | DBPerturbação tropical | 35 | 991 |
| 29/07 | 06:00 | TDDepressão tropical | 35 | 990 |
| 29/07 | 03:00 | DBPerturbação tropical | 35 | 989 |
| 29/07 | 00:00 | TDDepressão tropical | 35 | 988 |
| 28/07 | 21:00 | DBPerturbação tropical | 35 | 988 |
| 28/07 | 18:00 | TDDepressão tropical | 35 | 988 |
| 28/07 | 15:00 | DBPerturbação tropical | 35 | 989 |
| 28/07 | 12:00 | TDDepressão tropical | 35 | 989 |
| 28/07 | 09:00 | DBPerturbação tropical | 35 | 989 |
| 28/07 | 06:00 | TDDepressão tropical | 35 | 988 |
| 28/07 | 03:00 | TDDepressão tropical | 45 | 987 |
| 28/07 | 00:00 | TDDepressão tropical | 45 | 985 |
| 27/07 | 21:00 | TDDepressão tropical | 45 | 985 |
| 27/07 | 18:00 | TDDepressão tropical | 45 | 985 |
| 27/07 | 15:00 | TDDepressão tropical | 45 | 985 |
| 27/07 | 12:00 | TSTempestade tropical | 45 | 985 |
| 27/07 | 09:00 | TDDepressão tropical | 45 | 985 |
| 27/07 | 06:00 | TSTempestade tropical | 45 | 985 |
| 27/07 | 03:00 | TDDepressão tropical | 45 | 986 |
| 27/07 | 00:00 | TSTempestade tropical | 45 | 987 |
| 26/07 | 21:00 | TDDepressão tropical | 45 | 987 |
| 26/07 | 18:00 | TSTempestade tropical | 45 | 986 |
| 26/07 | 15:00 | TDDepressão tropical | 50 | 986 |
| 26/07 | 12:00 | TSTempestade tropical | 55 | 985 |
| 26/07 | 09:00 | TSTempestade tropical | 60 | 984 |
| 26/07 | 06:00 | STSTempestade tropical severa | 65 | 983 |
| 26/07 | 03:00 | TSTempestade tropical | 70 | 986 |
| 26/07 | 00:00 | STSTempestade tropical severa | 75 | 988 |
| 25/07 | 21:00 | TSTempestade tropical | 80 | 985 |
| 25/07 | 18:00 | STSTempestade tropical severa | 85 | 982 |
| 25/07 | 15:00 | TSTempestade tropical | 95 | 979 |
| 25/07 | 12:00 | STSTempestade tropical severa | 100 | 975 |
| 25/07 | 09:00 | TSTempestade tropical | 100 | 974 |
| 25/07 | 06:00 | TTufão | 100 | 972 |
| 25/07 | 03:00 | TSTempestade tropical | 100 | 972 |
| 25/07 | 00:00 | TTufão | 100 | 971 |
| 24/07 | 21:00 | TSTempestade tropical | 105 | 969 |
| 24/07 | 18:00 | TTufão | 110 | 966 |
| 24/07 | 15:00 | TTufão | 120 | 963 |
| 24/07 | 12:00 | TTufão | 130 | 959 |
| 24/07 | 09:00 | TTufão | 130 | 959 |
| 24/07 | 06:00 | TTufão | 130 | 958 |
| 24/07 | 03:00 | TTufão | 130 | 959 |
| 24/07 | 00:00 | TTufão | 130 | 960 |
| 23/07 | 21:00 | TTufão | 125 | 961 |
| 23/07 | 18:00 | TTufão | 120 | 961 |
| 23/07 | 15:00 | TTufão | 115 | 963 |
| 23/07 | 12:00 | TTufão | 110 | 965 |
| 23/07 | 09:00 | TTufão | 120 | 962 |
| 23/07 | 06:00 | TTufão | 130 | 959 |
| 23/07 | 03:00 | TTufão | 135 | 960 |
| 23/07 | 00:00 | TTufão | 140 | 961 |
| 22/07 | 21:00 | TTufão | 140 | 961 |
| 22/07 | 18:00 | TTufão | 140 | 961 |
| 22/07 | 15:00 | TTufão | 145 | 960 |
| 22/07 | 12:00 | TTufão | 150 | 959 |
| 22/07 | 09:00 | TTufão | 155 | 958 |
| 22/07 | 06:00 | TTufão | 155 | 957 |
| 22/07 | 03:00 | TTufão | 165 | 956 |
| 22/07 | 00:00 | TTufão | 165 | 954 |
| 21/07 | 21:00 | TTufão | 165 | 954 |
| 21/07 | 18:00 | TTufão | 165 | 954 |
| 21/07 | 15:00 | TTufão | 170 | 953 |
| 21/07 | 12:00 | TTufão | 175 | 951 |
| 21/07 | 09:00 | TTufão | 175 | 952 |
| 21/07 | 06:00 | TTufão | 175 | 952 |
| 21/07 | 03:00 | TTufão | 175 | 953 |
| 21/07 | 00:00 | TTufão | 175 | 953 |
| 20/07 | 21:00 | TTufão | 165 | 958 |
| 20/07 | 18:00 | TTufão | 155 | 963 |
| 20/07 | 15:00 | TTufão | 155 | 964 |
| 20/07 | 12:00 | TTufão | 150 | 965 |
| 20/07 | 09:00 | STSTempestade tropical severa | 135 | 969 |
| 20/07 | 06:00 | STSTempestade tropical severa | 120 | 973 |
| 20/07 | 03:00 | STSTempestade tropical severa | 110 | 975 |
| 20/07 | 00:00 | STSTempestade tropical severa | 100 | 976 |
| 19/07 | 21:00 | TSTempestade tropical | 100 | 979 |
| 19/07 | 18:00 | STSTempestade tropical severa | 95 | 981 |
| 19/07 | 15:00 | TSTempestade tropical | 95 | 982 |
| 19/07 | 12:00 | STSTempestade tropical severa | 95 | 982 |
| 19/07 | 09:00 | TSTempestade tropical | 95 | 982 |
| 19/07 | 06:00 | STSTempestade tropical severa | 95 | 982 |
| 19/07 | 03:00 | TSTempestade tropical | 95 | 983 |
| 19/07 | 00:00 | STSTempestade tropical severa | 95 | 984 |
| 18/07 | 21:00 | TDDepressão tropical | 90 | 985 |
| 18/07 | 18:00 | TSTempestade tropical | 85 | 985 |
| 18/07 | 15:00 | TDDepressão tropical | 80 | 987 |
| 18/07 | 12:00 | TSTempestade tropical | 75 | 989 |
| 18/07 | 09:00 | TDDepressão tropical | 70 | 991 |
| 18/07 | 06:00 | TSTempestade tropical | 65 | 993 |
| 18/07 | 03:00 | TDDepressão tropical | 65 | 996 |
| 18/07 | 00:00 | TSTempestade tropical | 65 | 998 |
| 17/07 | 21:00 | TDDepressão tropical | 60 | 999 |
| 17/07 | 18:00 | TSTempestade tropical | 55 | 999 |
| 17/07 | 15:00 | TDDepressão tropical | 55 | 999 |
| 17/07 | 12:00 | TSTempestade tropical | 55 | 999 |
| 17/07 | 09:00 | TDDepressão tropical | 55 | 1000 |
| 17/07 | 06:00 | TDDepressão tropical | 55 | 1000 |
| 17/07 | 03:00 | TDDepressão tropical | 55 | 1000 |
| 17/07 | 00:00 | TDDepressão tropical | 55 | 1000 |
| 16/07 | 21:00 | TDDepressão tropical | 50 | 1001 |
| 16/07 | 18:00 | TDDepressão tropical | 45 | 1002 |
| 16/07 | 15:00 | TDDepressão tropical | 45 | 1003 |
| 16/07 | 12:00 | TDDepressão tropical | 45 | 1003 |
| 16/07 | 09:00 | DBPerturbação tropical | 45 | 1004 |
| 16/07 | 06:00 | TDDepressão tropical | 35 | 1004 |
| 16/07 | 03:00 | DBPerturbação tropical | 35 | 1006 |
| 16/07 | 00:00 | TDDepressão tropical | 30 | 1007 |
| 15/07 | 21:00 | TDDepressão tropical | -- | 1006 |
| 15/07 | 18:00 | TDDepressão tropical | -- | 1006 |
Cronologia de localização
125 Registos de localizaçãoDesastres naturais próximos
Detalhes do evento
Ligações das fontes
Também pode encontrar estas ferramentas úteis
A localização, a extensão e o estado de cada evento podem ser atualizados em momentos diferentes consoante a fonte. Confirme decisões importantes junto das autoridades oficiais de emergência.
Os registos de eventos provêm da NASA EONET e são complementados por registos de deslizamentos de terra do USGS FDSN. As análises e previsões de tempestades podem utilizar a NOAA NHC ou o JTWC, com registos históricos ATCF da UCAR/NCAR quando disponíveis. As imagens de satélite provêm da NASA Worldview/GIBS (GOES e Himawari) ou da EUMETSAT Meteosat, consoante a cobertura do mapa.
Fontes: NASA EONET · USGS · NOAA NHC · JTWC · UCAR/NCAR ATCF · NASA Worldview/GIBS · EUMETSAT Meteosat · OpenStreetMap contributors